sensor_id;sensor_type;location;lat;lon;timestamp;temperature;humidity
26541;DHT22;14206;50.202;10.948;2022-09-09T00:01:55;13.00;96.20
26541;DHT22;14206;50.202;10.948;2022-09-09T00:04:31;13.00;96.30
26541;DHT22;14206;50.202;10.948;2022-09-09T00:07:07;13.00;96.30
26541;DHT22;14206;50.202;10.948;2022-09-09T00:09:47;12.90;96.60
26541;DHT22;14206;50.202;10.948;2022-09-09T00:14:59;12.90;96.40
26541;DHT22;14206;50.202;10.948;2022-09-09T00:17:47;12.90;96.40
26541;DHT22;14206;50.202;10.948;2022-09-09T00:25:54;12.90;96.50
26541;DHT22;14206;50.202;10.948;2022-09-09T00:28:26;12.90;96.60
26541;DHT22;14206;50.202;10.948;2022-09-09T00:30:53;12.90;96.60
26541;DHT22;14206;50.202;10.948;2022-09-09T00:33:24;12.90;96.50
26541;DHT22;14206;50.202;10.948;2022-09-09T00:36:02;12.90;96.50
26541;DHT22;14206;50.202;10.948;2022-09-09T00:38:42;12.90;96.50
26541;DHT22;14206;50.202;10.948;2022-09-09T00:55:09;13.30;96.60
26541;DHT22;14206;50.202;10.948;2022-09-09T00:57:39;13.40;96.60
26541;DHT22;14206;50.202;10.948;2022-09-09T01:00:18;13.40;96.60
26541;DHT22;14206;50.202;10.948;2022-09-09T01:06:01;13.60;96.40
26541;DHT22;14206;50.202;10.948;2022-09-09T01:12:01;13.70;95.70
26541;DHT22;14206;50.202;10.948;2022-09-09T01:17:30;13.80;95.80
26541;DHT22;14206;50.202;10.948;2022-09-09T01:20:26;13.90;95.50
26541;DHT22;14206;50.202;10.948;2022-09-09T01:28:24;14.00;95.20
26541;DHT22;14206;50.202;10.948;2022-09-09T01:30:55;14.00;95.40
26541;DHT22;14206;50.202;10.948;2022-09-09T01:33:24;14.10;95.30
26541;DHT22;14206;50.202;10.948;2022-09-09T01:38:38;14.10;95.30
26541;DHT22;14206;50.202;10.948;2022-09-09T01:41:05;14.20;95.10
26541;DHT22;14206;50.202;10.948;2022-09-09T01:43:41;14.20;95.00
26541;DHT22;14206;50.202;10.948;2022-09-09T01:46:08;14.20;94.80
26541;DHT22;14206;50.202;10.948;2022-09-09T01:48:41;14.10;94.90
26541;DHT22;14206;50.202;10.948;2022-09-09T01:51:10;14.00;94.80
26541;DHT22;14206;50.202;10.948;2022-09-09T01:53:42;14.00;94.90
26541;DHT22;14206;50.202;10.948;2022-09-09T01:56:36;13.90;95.30
26541;DHT22;14206;50.202;10.948;2022-09-09T02:05:02;14.00;95.80
26541;DHT22;14206;50.202;10.948;2022-09-09T02:07:47;14.00;95.80
26541;DHT22;14206;50.202;10.948;2022-09-09T02:10:32;14.00;95.50
26541;DHT22;14206;50.202;10.948;2022-09-09T02:13:14;14.00;95.60
26541;DHT22;14206;50.202;10.948;2022-09-09T02:18:21;14.00;95.10
26541;DHT22;14206;50.202;10.948;2022-09-09T02:20:52;14.00;95.20
26541;DHT22;14206;50.202;10.948;2022-09-09T02:23:20;13.90;95.10
26541;DHT22;14206;50.202;10.948;2022-09-09T02:25:52;13.90;95.80
26541;DHT22;14206;50.202;10.948;2022-09-09T02:28:25;14.00;95.90
26541;DHT22;14206;50.202;10.948;2022-09-09T02:30:53;14.00;95.90
26541;DHT22;14206;50.202;10.948;2022-09-09T02:33:40;14.00;95.70
26541;DHT22;14206;50.202;10.948;2022-09-09T02:36:08;14.00;95.60
26541;DHT22;14206;50.202;10.948;2022-09-09T02:38:40;14.10;96.00
26541;DHT22;14206;50.202;10.948;2022-09-09T02:41:12;14.10;95.60
26541;DHT22;14206;50.202;10.948;2022-09-09T02:43:39;14.10;95.80
26541;DHT22;14206;50.202;10.948;2022-09-09T02:53:20;14.30;95.40
26541;DHT22;14206;50.202;10.948;2022-09-09T02:55:27;14.30;95.30
26541;DHT22;14206;50.202;10.948;2022-09-09T02:57:58;14.40;95.00
26541;DHT22;14206;50.202;10.948;2022-09-09T03:00:28;14.40;94.90
26541;DHT22;14206;50.202;10.948;2022-09-09T03:03:03;14.40;94.90
26541;DHT22;14206;50.202;10.948;2022-09-09T03:05:32;14.40;95.40
26541;DHT22;14206;50.202;10.948;2022-09-09T03:07:59;14.50;95.40
26541;DHT22;14206;50.202;10.948;2022-09-09T03:10:26;14.50;95.10
26541;DHT22;14206;50.202;10.948;2022-09-09T03:12:53;14.60;95.40
26541;DHT22;14206;50.202;10.948;2022-09-09T03:15:20;14.60;95.40
26541;DHT22;14206;50.202;10.948;2022-09-09T03:17:47;14.60;95.50
26541;DHT22;14206;50.202;10.948;2022-09-09T03:20:14;14.70;94.90
26541;DHT22;14206;50.202;10.948;2022-09-09T03:22:41;14.70;94.90
26541;DHT22;14206;50.202;10.948;2022-09-09T03:25:08;14.60;94.60
26541;DHT22;14206;50.202;10.948;2022-09-09T03:27:36;14.60;94.80
26541;DHT22;14206;50.202;10.948;2022-09-09T03:30:04;14.70;94.70
26541;DHT22;14206;50.202;10.948;2022-09-09T03:32:32;14.70;95.20
26541;DHT22;14206;50.202;10.948;2022-09-09T03:35:03;14.70;95.10
26541;DHT22;14206;50.202;10.948;2022-09-09T03:37:37;14.60;95.00
26541;DHT22;14206;50.202;10.948;2022-09-09T03:40:06;14.60;94.90
26541;DHT22;14206;50.202;10.948;2022-09-09T03:42:33;14.60;94.80
26541;DHT22;14206;50.202;10.948;2022-09-09T03:45:01;14.70;94.90
26541;DHT22;14206;50.202;10.948;2022-09-09T03:47:28;14.80;94.50
26541;DHT22;14206;50.202;10.948;2022-09-09T03:50:04;14.80;94.10
26541;DHT22;14206;50.202;10.948;2022-09-09T03:52:35;14.80;94.00
26541;DHT22;14206;50.202;10.948;2022-09-09T03:55:03;14.90;94.50
26541;DHT22;14206;50.202;10.948;2022-09-09T03:57:30;14.90;94.30
26541;DHT22;14206;50.202;10.948;2022-09-09T03:59:57;14.90;94.20
26541;DHT22;14206;50.202;10.948;2022-09-09T04:02:31;15.00;94.20
26541;DHT22;14206;50.202;10.948;2022-09-09T04:04:58;15.00;94.20
26541;DHT22;14206;50.202;10.948;2022-09-09T04:07:26;15.00;94.20
26541;DHT22;14206;50.202;10.948;2022-09-09T04:09:55;15.00;93.80
26541;DHT22;14206;50.202;10.948;2022-09-09T04:12:22;15.00;93.90
26541;DHT22;14206;50.202;10.948;2022-09-09T04:14:49;15.10;93.90
26541;DHT22;14206;50.202;10.948;2022-09-09T04:17:16;15.10;93.80
26541;DHT22;14206;50.202;10.948;2022-09-09T04:19:43;15.10;93.80
26541;DHT22;14206;50.202;10.948;2022-09-09T04:22:10;15.10;93.70
26541;DHT22;14206;50.202;10.948;2022-09-09T04:24:37;15.10;93.60
26541;DHT22;14206;50.202;10.948;2022-09-09T04:27:04;15.10;93.80
26541;DHT22;14206;50.202;10.948;2022-09-09T04:29:34;15.10;93.70
26541;DHT22;14206;50.202;10.948;2022-09-09T04:32:01;15.20;93.90
26541;DHT22;14206;50.202;10.948;2022-09-09T04:34:28;15.20;93.40
26541;DHT22;14206;50.202;10.948;2022-09-09T04:36:57;15.20;93.80
26541;DHT22;14206;50.202;10.948;2022-09-09T04:39:27;15.10;94.10
26541;DHT22;14206;50.202;10.948;2022-09-09T04:41:55;15.10;93.90
26541;DHT22;14206;50.202;10.948;2022-09-09T04:44:22;15.20;93.80
26541;DHT22;14206;50.202;10.948;2022-09-09T04:46:49;15.20;93.90
26541;DHT22;14206;50.202;10.948;2022-09-09T04:49:16;15.20;93.60
26541;DHT22;14206;50.202;10.948;2022-09-09T04:51:44;15.20;93.20
26541;DHT22;14206;50.202;10.948;2022-09-09T04:54:13;15.30;93.70
26541;DHT22;14206;50.202;10.948;2022-09-09T04:56:42;15.30;93.50
26541;DHT22;14206;50.202;10.948;2022-09-09T04:59:10;15.30;93.90
26541;DHT22;14206;50.202;10.948;2022-09-09T05:01:48;15.30;93.70
26541;DHT22;14206;50.202;10.948;2022-09-09T05:04:26;15.40;93.50
26541;DHT22;14206;50.202;10.948;2022-09-09T05:06:54;15.40;93.50
26541;DHT22;14206;50.202;10.948;2022-09-09T05:09:22;15.50;93.70
26541;DHT22;14206;50.202;10.948;2022-09-09T05:11:50;15.50;93.70
26541;DHT22;14206;50.202;10.948;2022-09-09T05:14:24;15.50;93.50
26541;DHT22;14206;50.202;10.948;2022-09-09T05:16:51;15.60;93.50
26541;DHT22;14206;50.202;10.948;2022-09-09T05:19:18;15.60;93.60
26541;DHT22;14206;50.202;10.948;2022-09-09T05:21:47;15.60;93.50
26541;DHT22;14206;50.202;10.948;2022-09-09T05:24:17;15.80;93.60
26541;DHT22;14206;50.202;10.948;2022-09-09T05:26:46;15.90;93.30
26541;DHT22;14206;50.202;10.948;2022-09-09T05:29:13;15.90;93.10
26541;DHT22;14206;50.202;10.948;2022-09-09T05:31:40;16.00;92.90
26541;DHT22;14206;50.202;10.948;2022-09-09T05:34:13;16.10;92.40
26541;DHT22;14206;50.202;10.948;2022-09-09T05:36:40;16.20;92.30
26541;DHT22;14206;50.202;10.948;2022-09-09T05:39:07;16.30;92.20
26541;DHT22;14206;50.202;10.948;2022-09-09T05:41:34;16.40;91.80
26541;DHT22;14206;50.202;10.948;2022-09-09T05:44:03;16.40;91.90
26541;DHT22;14206;50.202;10.948;2022-09-09T05:46:35;16.50;92.00
26541;DHT22;14206;50.202;10.948;2022-09-09T05:49:02;16.50;91.60
26541;DHT22;14206;50.202;10.948;2022-09-09T05:51:33;16.50;92.00
26541;DHT22;14206;50.202;10.948;2022-09-09T05:54:07;16.50;91.70
26541;DHT22;14206;50.202;10.948;2022-09-09T05:56:38;16.50;91.30
26541;DHT22;14206;50.202;10.948;2022-09-09T05:59:07;16.50;90.60
26541;DHT22;14206;50.202;10.948;2022-09-09T06:01:35;16.60;91.40
26541;DHT22;14206;50.202;10.948;2022-09-09T06:04:10;16.70;91.20
26541;DHT22;14206;50.202;10.948;2022-09-09T06:06:39;16.70;90.90
26541;DHT22;14206;50.202;10.948;2022-09-09T06:09:11;16.80;90.80
26541;DHT22;14206;50.202;10.948;2022-09-09T06:11:42;16.90;90.60
26541;DHT22;14206;50.202;10.948;2022-09-09T06:14:09;17.00;90.30
26541;DHT22;14206;50.202;10.948;2022-09-09T06:16:38;17.20;89.90
26541;DHT22;14206;50.202;10.948;2022-09-09T06:19:11;17.30;89.90
26541;DHT22;14206;50.202;10.948;2022-09-09T06:21:39;17.40;89.20
26541;DHT22;14206;50.202;10.948;2022-09-09T06:24:11;17.40;88.50
26541;DHT22;14206;50.202;10.948;2022-09-09T06:26:41;17.50;88.50
26541;DHT22;14206;50.202;10.948;2022-09-09T06:29:11;17.60;88.50
26541;DHT22;14206;50.202;10.948;2022-09-09T06:31:39;17.70;88.20
26541;DHT22;14206;50.202;10.948;2022-09-09T06:34:19;17.80;87.60
26541;DHT22;14206;50.202;10.948;2022-09-09T06:36:50;17.80;87.10
26541;DHT22;14206;50.202;10.948;2022-09-09T06:39:18;17.90;86.00
26541;DHT22;14206;50.202;10.948;2022-09-09T06:41:45;17.90;86.60
26541;DHT22;14206;50.202;10.948;2022-09-09T06:44:32;17.90;86.70
26541;DHT22;14206;50.202;10.948;2022-09-09T06:47:05;17.90;86.60
26541;DHT22;14206;50.202;10.948;2022-09-09T06:49:33;17.90;85.50
26541;DHT22;14206;50.202;10.948;2022-09-09T06:52:05;18.00;84.90
26541;DHT22;14206;50.202;10.948;2022-09-09T06:54:32;18.00;85.10
26541;DHT22;14206;50.202;10.948;2022-09-09T06:56:59;18.00;84.70
26541;DHT22;14206;50.202;10.948;2022-09-09T06:59:50;18.10;85.00
26541;DHT22;14206;50.202;10.948;2022-09-09T07:02:18;18.40;84.00
26541;DHT22;14206;50.202;10.948;2022-09-09T07:04:46;18.40;83.80
26541;DHT22;14206;50.202;10.948;2022-09-09T07:07:13;18.50;83.70
26541;DHT22;14206;50.202;10.948;2022-09-09T07:09:43;18.60;82.90
26541;DHT22;14206;50.202;10.948;2022-09-09T07:12:22;18.70;83.30
26541;DHT22;14206;50.202;10.948;2022-09-09T07:14:55;18.80;83.00
26541;DHT22;14206;50.202;10.948;2022-09-09T07:17:22;19.20;82.60
26541;DHT22;14206;50.202;10.948;2022-09-09T07:19:49;19.50;80.90
26541;DHT22;14206;50.202;10.948;2022-09-09T07:22:16;19.80;79.80
26541;DHT22;14206;50.202;10.948;2022-09-09T07:24:43;19.90;79.30
26541;DHT22;14206;50.202;10.948;2022-09-09T07:27:12;19.90;79.10
26541;DHT22;14206;50.202;10.948;2022-09-09T07:29:40;19.90;79.30
26541;DHT22;14206;50.202;10.948;2022-09-09T07:32:07;20.00;79.70
26541;DHT22;14206;50.202;10.948;2022-09-09T07:34:36;20.10;78.70
26541;DHT22;14206;50.202;10.948;2022-09-09T07:37:04;20.20;78.80
26541;DHT22;14206;50.202;10.948;2022-09-09T07:39:33;20.50;78.60
26541;DHT22;14206;50.202;10.948;2022-09-09T07:42:03;20.40;78.90
26541;DHT22;14206;50.202;10.948;2022-09-09T07:44:31;20.20;78.40
26541;DHT22;14206;50.202;10.948;2022-09-09T07:47:06;20.20;79.60
26541;DHT22;14206;50.202;10.948;2022-09-09T07:49:40;20.10;79.30
26541;DHT22;14206;50.202;10.948;2022-09-09T07:52:08;20.00;78.70
26541;DHT22;14206;50.202;10.948;2022-09-09T07:54:38;19.80;79.80
26541;DHT22;14206;50.202;10.948;2022-09-09T07:57:05;19.90;79.40
26541;DHT22;14206;50.202;10.948;2022-09-09T07:59:35;20.00;78.80
26541;DHT22;14206;50.202;10.948;2022-09-09T08:02:02;20.10;78.40
26541;DHT22;14206;50.202;10.948;2022-09-09T08:04:32;20.40;78.40
26541;DHT22;14206;50.202;10.948;2022-09-09T08:07:01;20.70;76.70
26541;DHT22;14206;50.202;10.948;2022-09-09T08:09:35;20.90;76.40
26541;DHT22;14206;50.202;10.948;2022-09-09T08:12:10;21.40;75.90
26541;DHT22;14206;50.202;10.948;2022-09-09T08:14:39;21.50;75.60
26541;DHT22;14206;50.202;10.948;2022-09-09T08:17:06;21.60;74.80
26541;DHT22;14206;50.202;10.948;2022-09-09T08:19:33;21.70;74.80
26541;DHT22;14206;50.202;10.948;2022-09-09T08:22:08;21.70;74.50
26541;DHT22;14206;50.202;10.948;2022-09-09T08:24:38;21.70;74.70
26541;DHT22;14206;50.202;10.948;2022-09-09T08:27:10;21.60;73.70
26541;DHT22;14206;50.202;10.948;2022-09-09T08:29:38;21.50;73.60
26541;DHT22;14206;50.202;10.948;2022-09-09T08:32:05;21.60;73.50
26541;DHT22;14206;50.202;10.948;2022-09-09T08:34:33;21.70;73.90
26541;DHT22;14206;50.202;10.948;2022-09-09T08:37:05;21.80;73.50
26541;DHT22;14206;50.202;10.948;2022-09-09T08:39:37;21.80;74.20
26541;DHT22;14206;50.202;10.948;2022-09-09T08:42:49;21.90;73.80
26541;DHT22;14206;50.202;10.948;2022-09-09T08:45:21;22.10;73.30
26541;DHT22;14206;50.202;10.948;2022-09-09T08:50:37;22.20;72.40
26541;DHT22;14206;50.202;10.948;2022-09-09T08:53:37;22.30;73.20
26541;DHT22;14206;50.202;10.948;2022-09-09T08:56:12;22.40;71.40
26541;DHT22;14206;50.202;10.948;2022-09-09T08:58:52;22.50;71.60
26541;DHT22;14206;50.202;10.948;2022-09-09T09:01:48;22.90;71.60
26541;DHT22;14206;50.202;10.948;2022-09-09T09:13:14;24.50;67.80
26541;DHT22;14206;50.202;10.948;2022-09-09T09:15:44;24.80;66.30
26541;DHT22;14206;50.202;10.948;2022-09-09T09:18:13;25.30;65.30
26541;DHT22;14206;50.202;10.948;2022-09-09T09:23:23;26.40;63.10
26541;DHT22;14206;50.202;10.948;2022-09-09T09:25:58;28.00;59.70
26541;DHT22;14206;50.202;10.948;2022-09-09T09:28:29;28.70;57.60
26541;DHT22;14206;50.202;10.948;2022-09-09T09:31:10;28.60;57.90
26541;DHT22;14206;50.202;10.948;2022-09-09T09:33:50;28.40;56.90
26541;DHT22;14206;50.202;10.948;2022-09-09T09:36:21;28.40;56.80
26541;DHT22;14206;50.202;10.948;2022-09-09T09:39:06;28.70;57.30
26541;DHT22;14206;50.202;10.948;2022-09-09T09:42:16;29.70;55.50
26541;DHT22;14206;50.202;10.948;2022-09-09T09:44:50;29.50;53.60
26541;DHT22;14206;50.202;10.948;2022-09-09T09:47:23;28.60;55.10
26541;DHT22;14206;50.202;10.948;2022-09-09T09:50:19;27.70;56.90
26541;DHT22;14206;50.202;10.948;2022-09-09T09:52:57;26.70;58.50
26541;DHT22;14206;50.202;10.948;2022-09-09T09:55:26;25.90;60.60
26541;DHT22;14206;50.202;10.948;2022-09-09T09:58:06;25.80;61.60
26541;DHT22;14206;50.202;10.948;2022-09-09T10:00:49;25.80;61.90
26541;DHT22;14206;50.202;10.948;2022-09-09T10:03:29;25.50;62.30
26541;DHT22;14206;50.202;10.948;2022-09-09T10:05:58;25.00;63.60
26541;DHT22;14206;50.202;10.948;2022-09-09T10:08:26;24.40;64.70
26541;DHT22;14206;50.202;10.948;2022-09-09T10:13:53;23.90;65.70
26541;DHT22;14206;50.202;10.948;2022-09-09T10:19:17;24.40;65.50
26541;DHT22;14206;50.202;10.948;2022-09-09T10:38:14;24.30;65.90
26541;DHT22;14206;50.202;10.948;2022-09-09T10:46:06;27.50;59.60
26541;DHT22;14206;50.202;10.948;2022-09-09T10:57:24;32.50;47.70
26541;DHT22;14206;50.202;10.948;2022-09-09T10:59:58;33.20;46.70
26541;DHT22;14206;50.202;10.948;2022-09-09T11:02:32;33.80;45.80
26541;DHT22;14206;50.202;10.948;2022-09-09T11:05:04;34.20;44.80
26541;DHT22;14206;50.202;10.948;2022-09-09T11:10:51;35.10;42.90
26541;DHT22;14206;50.202;10.948;2022-09-09T11:15:58;32.70;45.30
26541;DHT22;14206;50.202;10.948;2022-09-09T11:18:29;31.40;46.70
26541;DHT22;14206;50.202;10.948;2022-09-09T11:21:01;30.00;49.00
26541;DHT22;14206;50.202;10.948;2022-09-09T11:23:41;28.90;50.80
26541;DHT22;14206;50.202;10.948;2022-09-09T11:26:15;28.00;52.70
26541;DHT22;14206;50.202;10.948;2022-09-09T11:42:30;25.60;58.90
26541;DHT22;14206;50.202;10.948;2022-09-09T11:45:09;27.40;56.10
26541;DHT22;14206;50.202;10.948;2022-09-09T11:47:50;28.30;53.20
26541;DHT22;14206;50.202;10.948;2022-09-09T11:52:46;30.40;51.20
26541;DHT22;14206;50.202;10.948;2022-09-09T11:55:28;31.80;50.40
26541;DHT22;14206;50.202;10.948;2022-09-09T11:58:18;31.90;47.10
26541;DHT22;14206;50.202;10.948;2022-09-09T12:00:49;30.80;47.50
26541;DHT22;14206;50.202;10.948;2022-09-09T12:03:41;30.20;48.90
26541;DHT22;14206;50.202;10.948;2022-09-09T12:06:29;29.40;48.90
26541;DHT22;14206;50.202;10.948;2022-09-09T12:11:51;27.80;51.80
26541;DHT22;14206;50.202;10.948;2022-09-09T12:17:25;26.30;53.40
26541;DHT22;14206;50.202;10.948;2022-09-09T12:28:11;23.70;64.60
26541;DHT22;14206;50.202;10.948;2022-09-09T12:30:51;23.20;67.20
26541;DHT22;14206;50.202;10.948;2022-09-09T12:33:22;23.10;69.40
26541;DHT22;14206;50.202;10.948;2022-09-09T12:36:00;23.20;69.30
26541;DHT22;14206;50.202;10.948;2022-09-09T12:38:34;23.30;69.50
26541;DHT22;14206;50.202;10.948;2022-09-09T12:41:04;23.40;67.90
26541;DHT22;14206;50.202;10.948;2022-09-09T12:43:31;23.20;67.80
26541;DHT22;14206;50.202;10.948;2022-09-09T12:46:08;23.20;67.40
26541;DHT22;14206;50.202;10.948;2022-09-09T12:48:39;23.30;67.60
26541;DHT22;14206;50.202;10.948;2022-09-09T12:51:44;23.30;66.10
26541;DHT22;14206;50.202;10.948;2022-09-09T12:54:04;23.30;66.20
26541;DHT22;14206;50.202;10.948;2022-09-09T12:56:32;23.20;65.70
26541;DHT22;14206;50.202;10.948;2022-09-09T12:59:17;23.30;66.10
26541;DHT22;14206;50.202;10.948;2022-09-09T13:01:56;23.10;66.70
26541;DHT22;14206;50.202;10.948;2022-09-09T13:04:23;23.00;66.20
26541;DHT22;14206;50.202;10.948;2022-09-09T13:06:50;23.00;66.40
26541;DHT22;14206;50.202;10.948;2022-09-09T13:09:19;22.90;66.30
26541;DHT22;14206;50.202;10.948;2022-09-09T13:12:07;23.00;66.10
26541;DHT22;14206;50.202;10.948;2022-09-09T13:14:52;23.20;66.80
26541;DHT22;14206;50.202;10.948;2022-09-09T13:17:24;23.40;65.80
26541;DHT22;14206;50.202;10.948;2022-09-09T13:19:54;23.50;64.30
26541;DHT22;14206;50.202;10.948;2022-09-09T13:22:30;23.50;62.30
26541;DHT22;14206;50.202;10.948;2022-09-09T13:25:24;23.50;60.60
26541;DHT22;14206;50.202;10.948;2022-09-09T13:28:01;23.40;59.80
26541;DHT22;14206;50.202;10.948;2022-09-09T13:30:33;23.20;59.60
26541;DHT22;14206;50.202;10.948;2022-09-09T13:33:21;23.10;59.90
26541;DHT22;14206;50.202;10.948;2022-09-09T13:35:58;23.00;60.60
26541;DHT22;14206;50.202;10.948;2022-09-09T13:38:27;23.00;59.50
26541;DHT22;14206;50.202;10.948;2022-09-09T13:41:09;22.90;62.00
26541;DHT22;14206;50.202;10.948;2022-09-09T13:43:42;22.90;59.70
26541;DHT22;14206;50.202;10.948;2022-09-09T13:46:31;22.90;59.20
26541;DHT22;14206;50.202;10.948;2022-09-09T13:51:45;22.70;57.70
26541;DHT22;14206;50.202;10.948;2022-09-09T13:54:15;22.80;58.60
26541;DHT22;14206;50.202;10.948;2022-09-09T13:56:43;23.20;59.40
26541;DHT22;14206;50.202;10.948;2022-09-09T13:59:15;23.30;58.60
26541;DHT22;14206;50.202;10.948;2022-09-09T14:01:43;23.30;57.80
26541;DHT22;14206;50.202;10.948;2022-09-09T14:04:10;23.10;58.30
26541;DHT22;14206;50.202;10.948;2022-09-09T14:06:38;23.00;59.80
26541;DHT22;14206;50.202;10.948;2022-09-09T14:09:06;23.10;60.10
26541;DHT22;14206;50.202;10.948;2022-09-09T14:11:34;23.20;59.40
26541;DHT22;14206;50.202;10.948;2022-09-09T14:14:01;23.40;57.90
26541;DHT22;14206;50.202;10.948;2022-09-09T14:16:30;23.60;58.90
26541;DHT22;14206;50.202;10.948;2022-09-09T14:18:57;23.70;57.20
26541;DHT22;14206;50.202;10.948;2022-09-09T14:21:27;23.80;57.30
26541;DHT22;14206;50.202;10.948;2022-09-09T14:24:09;23.90;57.00
26541;DHT22;14206;50.202;10.948;2022-09-09T14:26:36;23.90;56.90
26541;DHT22;14206;50.202;10.948;2022-09-09T14:29:03;23.80;57.40
26541;DHT22;14206;50.202;10.948;2022-09-09T14:31:30;23.70;57.20
26541;DHT22;14206;50.202;10.948;2022-09-09T14:33:57;23.60;56.90
26541;DHT22;14206;50.202;10.948;2022-09-09T14:36:25;23.50;57.80
26541;DHT22;14206;50.202;10.948;2022-09-09T14:38:52;23.40;56.60
26541;DHT22;14206;50.202;10.948;2022-09-09T14:41:19;23.30;57.00
26541;DHT22;14206;50.202;10.948;2022-09-09T14:43:49;23.20;57.30
26541;DHT22;14206;50.202;10.948;2022-09-09T14:46:18;23.10;57.50
26541;DHT22;14206;50.202;10.948;2022-09-09T14:48:45;23.00;57.90
26541;DHT22;14206;50.202;10.948;2022-09-09T14:51:20;23.00;58.80
26541;DHT22;14206;50.202;10.948;2022-09-09T14:53:52;23.00;58.80
26541;DHT22;14206;50.202;10.948;2022-09-09T14:56:27;23.00;59.60
26541;DHT22;14206;50.202;10.948;2022-09-09T14:58:55;23.00;59.80
26541;DHT22;14206;50.202;10.948;2022-09-09T15:01:23;22.90;58.40
26541;DHT22;14206;50.202;10.948;2022-09-09T15:03:56;22.80;58.70
26541;DHT22;14206;50.202;10.948;2022-09-09T15:06:26;22.70;58.40
26541;DHT22;14206;50.202;10.948;2022-09-09T15:08:54;22.60;59.60
26541;DHT22;14206;50.202;10.948;2022-09-09T15:11:27;22.60;59.90
26541;DHT22;14206;50.202;10.948;2022-09-09T15:13:54;22.60;59.40
26541;DHT22;14206;50.202;10.948;2022-09-09T15:16:23;22.60;60.10
26541;DHT22;14206;50.202;10.948;2022-09-09T15:18:52;22.60;60.20
26541;DHT22;14206;50.202;10.948;2022-09-09T15:21:28;22.60;60.20
26541;DHT22;14206;50.202;10.948;2022-09-09T15:23:56;22.40;59.40
26541;DHT22;14206;50.202;10.948;2022-09-09T15:26:24;22.20;60.00
26541;DHT22;14206;50.202;10.948;2022-09-09T15:28:51;22.00;60.60
26541;DHT22;14206;50.202;10.948;2022-09-09T15:31:20;21.90;61.10
26541;DHT22;14206;50.202;10.948;2022-09-09T15:34:00;21.80;61.40
26541;DHT22;14206;50.202;10.948;2022-09-09T15:36:41;21.80;62.10
26541;DHT22;14206;50.202;10.948;2022-09-09T15:39:17;22.00;62.30
26541;DHT22;14206;50.202;10.948;2022-09-09T15:41:48;22.10;62.00
26541;DHT22;14206;50.202;10.948;2022-09-09T15:44:15;22.20;61.50
26541;DHT22;14206;50.202;10.948;2022-09-09T15:46:50;22.20;61.50
26541;DHT22;14206;50.202;10.948;2022-09-09T15:49:26;22.10;62.20
26541;DHT22;14206;50.202;10.948;2022-09-09T15:51:56;22.00;62.10
26541;DHT22;14206;50.202;10.948;2022-09-09T15:54:25;21.80;62.80
26541;DHT22;14206;50.202;10.948;2022-09-09T15:56:55;21.70;63.50
26541;DHT22;14206;50.202;10.948;2022-09-09T15:59:24;21.50;63.80
26541;DHT22;14206;50.202;10.948;2022-09-09T16:01:51;21.40;64.70
26541;DHT22;14206;50.202;10.948;2022-09-09T16:04:18;21.30;64.90
26541;DHT22;14206;50.202;10.948;2022-09-09T16:06:56;21.20;65.80
26541;DHT22;14206;50.202;10.948;2022-09-09T16:09:27;21.00;66.10
26541;DHT22;14206;50.202;10.948;2022-09-09T16:11:58;20.90;66.90
26541;DHT22;14206;50.202;10.948;2022-09-09T16:14:27;20.70;67.40
26541;DHT22;14206;50.202;10.948;2022-09-09T16:16:54;20.60;67.30
26541;DHT22;14206;50.202;10.948;2022-09-09T16:19:22;20.50;67.50
26541;DHT22;14206;50.202;10.948;2022-09-09T16:21:49;20.40;68.00
26541;DHT22;14206;50.202;10.948;2022-09-09T16:24:19;20.40;67.80
26541;DHT22;14206;50.202;10.948;2022-09-09T16:26:50;20.30;68.40
26541;DHT22;14206;50.202;10.948;2022-09-09T16:29:19;20.30;69.00
26541;DHT22;14206;50.202;10.948;2022-09-09T16:31:46;20.20;68.30
26541;DHT22;14206;50.202;10.948;2022-09-09T16:34:14;20.20;68.80
26541;DHT22;14206;50.202;10.948;2022-09-09T16:36:43;20.10;68.90
26541;DHT22;14206;50.202;10.948;2022-09-09T16:39:16;20.10;69.20
26541;DHT22;14206;50.202;10.948;2022-09-09T16:41:44;20.10;69.00
26541;DHT22;14206;50.202;10.948;2022-09-09T16:44:12;20.20;69.60
26541;DHT22;14206;50.202;10.948;2022-09-09T16:46:43;20.20;69.30
26541;DHT22;14206;50.202;10.948;2022-09-09T16:49:17;20.20;69.60
26541;DHT22;14206;50.202;10.948;2022-09-09T16:51:49;20.20;69.70
26541;DHT22;14206;50.202;10.948;2022-09-09T16:54:16;20.20;70.20
26541;DHT22;14206;50.202;10.948;2022-09-09T16:56:46;20.20;70.10
26541;DHT22;14206;50.202;10.948;2022-09-09T16:59:16;20.30;71.00
26541;DHT22;14206;50.202;10.948;2022-09-09T17:01:44;20.30;70.60
26541;DHT22;14206;50.202;10.948;2022-09-09T17:04:19;20.40;70.70
26541;DHT22;14206;50.202;10.948;2022-09-09T17:06:51;20.50;70.30
26541;DHT22;14206;50.202;10.948;2022-09-09T17:09:20;20.60;70.00
26541;DHT22;14206;50.202;10.948;2022-09-09T17:11:47;20.70;69.30
26541;DHT22;14206;50.202;10.948;2022-09-09T17:14:18;20.70;69.30
26541;DHT22;14206;50.202;10.948;2022-09-09T17:16:45;20.70;69.70
26541;DHT22;14206;50.202;10.948;2022-09-09T17:19:13;20.70;69.70
26541;DHT22;14206;50.202;10.948;2022-09-09T17:21:40;20.60;69.50
26541;DHT22;14206;50.202;10.948;2022-09-09T17:24:27;20.50;69.30
26541;DHT22;14206;50.202;10.948;2022-09-09T17:26:58;20.40;69.30
26541;DHT22;14206;50.202;10.948;2022-09-09T17:29:25;20.30;69.10
26541;DHT22;14206;50.202;10.948;2022-09-09T17:31:53;20.20;69.00
26541;DHT22;14206;50.202;10.948;2022-09-09T17:34:20;20.10;69.00
26541;DHT22;14206;50.202;10.948;2022-09-09T17:36:48;20.10;69.30
26541;DHT22;14206;50.202;10.948;2022-09-09T17:39:15;20.10;69.10
26541;DHT22;14206;50.202;10.948;2022-09-09T17:41:42;19.90;69.30
26541;DHT22;14206;50.202;10.948;2022-09-09T17:44:09;19.80;69.80
26541;DHT22;14206;50.202;10.948;2022-09-09T17:46:39;19.70;70.50
26541;DHT22;14206;50.202;10.948;2022-09-09T17:49:12;19.60;70.30
26541;DHT22;14206;50.202;10.948;2022-09-09T17:51:41;19.50;70.70
26541;DHT22;14206;50.202;10.948;2022-09-09T17:54:14;19.40;71.60
26541;DHT22;14206;50.202;10.948;2022-09-09T17:56:42;19.30;71.60
26541;DHT22;14206;50.202;10.948;2022-09-09T17:59:17;19.20;72.00
26541;DHT22;14206;50.202;10.948;2022-09-09T18:01:46;19.10;72.40
26541;DHT22;14206;50.202;10.948;2022-09-09T18:04:16;19.10;73.30
26541;DHT22;14206;50.202;10.948;2022-09-09T18:06:45;18.90;73.70
26541;DHT22;14206;50.202;10.948;2022-09-09T18:09:15;18.90;74.00